Aérodrome :
LOGIN :

S'inscrire | Disclaimer

   EN    FR    IT 

 










Légende :    VFR   VFR Marginal   IFR   IFR Intensif   IFR Très Intensif
Visi : 
Plafond : 
>= 8 km
>= 3000ft
5 à 8 km
1000 à 3000 ft
1500m à 5 km
500 à 1000 ft
800 à 1500m
200 à 500 ft
< 800m
< 200 ft
Symboles :   Orages  Brouillard  Fortes neiges  Fortes précipitations  Vent > 20 kt
SIGMETs :   Divers  Orages  Givrage  Turbulence  Onde Orograph.  Cendres Volcan.







- Altitude de l'aérodrome : 776 ft
- Code IATA : RMS


ETAR - Ramstein Air Base

DERNIER METAR :
  • 251456Z 05006KT 9999 SCT050 18/12 A3009 RMK AO2A SLP194 T01840115 57004 $

METARs EXPIRÉS :
  • 251356Z 06010KT 9999 SCT042 18/11 A3009 RMK AO2A SLP194 T01810112 $
  • 251256Z 12003KT 9999 FEW040 FEW050 19/11 A3009 RMK AO2A SLP193 T01910106 $

TAF TAF ETAR
Valide du 25 à 10h jusqu'au 26 à 16h UTC


251002Z 2510/2616 VRB06KT 9999 SCT010 QNH3010INS
BECMG 2522/2523 VRB06KT 5000 BR SCT030 QNH3007INS
BECMG 2602/2603 VRB06KT 3200 BR SCT002 QNH3007INS
BECMG 2604/2605 VRB06KT 0600 FG BKN002 QNH3009INS
BECMG 2607/2608 VRB06KT 3200 BR BKN002 QNH3010INS
BECMG 2608/2609 VRB06KT 6000 BR SCT002 QNH3011INS
BECMG 2610/2611 VRB06KT 9999 NSW FEW030 QNH3012INS TX17/2515Z TN03/2606Z
Pas de NOTAMs connus pour ce terrain.



MET'MAP, la Météo Aéronautique d'un coup d'oeil ! - Copyright ORBIFLY Décembre 2007 - Disclaimer

ORBIFLY MET'MAP TEAM :

Programmation & Développement : Alexandra Zaïnal
Conception & Développement : Baudouin d'Aumeries
Co-Programmation & Développement : Marc-Olivier Méhu
Soutien technique & logistique : Manuel Goepfert

Contact : metmap@orbifly.com




SOURCES & CREDITS :

   NOAA